Time,TemperatureF,DewpointF,PressureIn,WindDirection,WindDirectionDegrees,WindSpeedMPH,WindSpeedGustMPH,Humidity,HourlyPrecipIn,Conditions,Clouds,dailyrainin,SoftwareType,DateUTC
2013-07-05 00:01:00,69.1,65.7,30.22,ENE,68,0.0,0.0,89,0.24,,CLR,1.53,VWS V12.08,2013-07-05 04:01:00,
2013-07-05 00:02:00,68.9,65.5,30.22,ENE,68,0.0,0.0,89,0.24,,CLR,1.53,VWS V12.08,2013-07-05 04:02:00,
2013-07-05 00:03:00,68.9,65.5,30.22,ENE,68,0.0,0.0,89,0.24,,CLR,1.53,VWS V12.08,2013-07-05 04:03:00,
2013-07-05 00:05:00,68.9,65.5,30.21,ENE,68,0.0,0.0,89,0.22,,CLR,1.53,VWS V12.08,2013-07-05 04:05:00,
2013-07-05 00:10:00,68.9,65.5,30.21,ENE,68,0.0,0.0,89,0.19,,CLR,1.53,VWS V12.08,2013-07-05 04:10:00,
2013-07-05 00:15:00,68.9,65.5,30.22,ENE,68,0.0,0.0,89,0.19,,CLR,1.53,VWS V12.08,2013-07-05 04:15:00,
2013-07-05 00:20:00,68.9,65.5,30.22,ENE,68,0.0,0.0,89,0.19,,CLR,1.53,VWS V12.08,2013-07-05 04:20:00,
2013-07-05 00:25:00,68.9,65.5,30.22,ENE,68,0.0,0.0,89,0.04,,CLR,1.53,VWS V12.08,2013-07-05 04:25:00,
2013-07-05 00:30:00,68.9,65.5,30.22,ENE,68,0.0,0.0,89,0.04,,CLR,1.53,VWS V12.08,2013-07-05 04:30:00,
2013-07-05 00:35:00,69.1,65.7,30.22,ENE,68,0.0,0.0,89,0.00,,CLR,1.53,VWS V12.08,2013-07-05 04:35:00,
2013-07-05 00:40:00,68.9,65.5,30.22,ENE,68,0.0,0.0,89,0.00,,CLR,1.53,VWS V12.08,2013-07-05 04:40:00,
2013-07-05 00:45:00,68.9,65.5,30.22,East,90,0.0,0.0,89,0.00,,CLR,1.53,VWS V12.08,2013-07-05 04:45:00,
2013-07-05 00:50:00,68.9,65.5,30.22,East,90,0.0,0.0,89,0.00,,CLR,1.53,VWS V12.08,2013-07-05 04:50:00,
2013-07-05 00:55:00,68.9,65.5,30.22,East,90,0.0,0.0,89,0.00,,CLR,1.53,VWS V12.08,2013-07-05 04:55:00,
2013-07-05 01:00:00,68.7,65.3,30.22,East,90,0.0,0.0,89,0.00,,CLR,1.53,VWS V12.08,2013-07-05 05:00:00,
2013-07-05 01:05:00,68.7,65.3,30.22,East,90,0.0,0.0,89,0.00,,CLR,1.41,VWS V12.08,2013-07-05 05:05:00,
2013-07-05 01:10:00,68.7,65.3,30.21,East,90,0.0,0.0,89,0.00,,CLR,1.41,VWS V12.08,2013-07-05 05:10:00,
2013-07-05 01:15:00,68.7,65.3,30.21,East,90,0.0,0.0,89,0.00,,CLR,1.41,VWS V12.08,2013-07-05 05:15:00,
2013-07-05 01:20:00,68.7,65.3,30.21,East,90,0.0,0.0,89,0.00,,CLR,1.41,VWS V12.08,2013-07-05 05:20:00,
2013-07-05 01:25:00,68.7,65.3,30.20,East,90,0.0,0.0,89,0.00,,CLR,1.41,VWS V12.08,2013-07-05 05:25:00,
2013-07-05 01:30:00,68.5,65.2,30.21,East,90,0.0,0.0,89,0.00,,CLR,1.41,VWS V12.08,2013-07-05 05:30:00,
2013-07-05 01:35:00,68.5,65.2,30.21,East,90,0.0,0.0,89,0.00,,CLR,1.41,VWS V12.08,2013-07-05 05:35:00,
2013-07-05 01:40:00,68.5,65.2,30.20,East,90,0.0,0.0,89,0.00,,CLR,1.41,VWS V12.08,2013-07-05 05:40:00,
2013-07-05 01:45:00,68.5,65.5,30.20,East,90,0.0,0.0,90,0.00,,CLR,1.41,VWS V12.08,2013-07-05 05:45:00,
2013-07-05 01:50:00,68.5,65.5,30.20,East,90,0.0,0.0,90,0.06,,CLR,1.47,VWS V12.08,2013-07-05 05:50:00,
2013-07-05 01:55:00,68.5,65.5,30.20,NW,315,0.0,0.0,90,0.06,,CLR,1.47,VWS V12.08,2013-07-05 05:55:00,
2013-07-05 02:00:00,68.5,65.5,30.20,NNW,338,0.0,0.0,90,0.11,,CLR,1.51,VWS V12.08,2013-07-05 06:00:00,
2013-07-05 02:05:00,68.5,65.5,30.20,NE,45,0.0,0.0,90,0.30,,CLR,1.45,VWS V12.08,2013-07-05 06:05:00,
2013-07-05 02:10:00,68.5,65.5,30.20,SSE,158,0.0,0.0,90,0.45,,CLR,1.60,VWS V12.08,2013-07-05 06:10:00,
2013-07-05 02:15:00,68.5,65.5,30.20,NNE,22,0.0,0.0,90,0.45,,CLR,1.60,VWS V12.08,2013-07-05 06:15:00,
2013-07-05 02:20:00,68.5,65.5,30.20,NNE,22,0.0,0.0,90,0.45,,CLR,1.60,VWS V12.08,2013-07-05 06:20:00,
2013-07-05 02:25:00,68.5,65.5,30.20,SW,225,0.0,0.0,90,0.45,,CLR,1.60,VWS V12.08,2013-07-05 06:25:00,
2013-07-05 09:50:00,71.8,69.0,30.24,ESE,112,0.0,0.0,91,19.56,,CLR,22.09,VWS V12.08,2013-07-05 13:50:00,
2013-07-05 10:30:00,73.0,70.3,30.24,NE,45,0.0,0.0,91,1.90,,CLR,3.05,VWS V12.08,2013-07-05 14:30:00,
2013-07-05 10:35:00,73.2,70.4,30.24,NE,45,0.0,0.0,91,0.00,,CLR,2.79,VWS V12.08,2013-07-05 14:35:00,
2013-07-05 10:40:00,73.6,70.8,30.24,NE,45,0.0,0.0,91,0.00,,CLR,2.79,VWS V12.08,2013-07-05 14:40:00,
2013-07-05 10:46:00,74.1,71.3,30.24,ENE,68,0.0,0.0,91,0.00,,CLR,2.79,VWS V12.08,2013-07-05 14:46:00,
2013-07-05 10:51:00,75.0,72.2,30.24,ENE,68,0.0,0.0,91,0.00,,CLR,2.79,VWS V12.08,2013-07-05 14:51:00,
2013-07-05 10:56:00,75.2,72.4,30.25,ENE,68,0.0,0.0,91,0.00,,CLR,2.79,VWS V12.08,2013-07-05 14:56:00,
2013-07-05 11:01:00,75.7,72.9,30.25,East,90,0.0,0.0,91,0.00,,CLR,2.75,VWS V12.08,2013-07-05 15:01:00,
2013-07-05 11:06:00,75.9,72.8,30.25,ESE,112,0.0,0.0,90,0.00,,CLR,2.75,VWS V12.08,2013-07-05 15:06:00,
2013-07-05 11:11:00,75.7,72.3,30.24,ESE,112,0.0,0.0,89,0.00,,CLR,2.75,VWS V12.08,2013-07-05 15:11:00,
2013-07-05 11:16:00,75.6,71.8,30.24,ENE,68,0.0,0.0,88,0.00,,CLR,2.75,VWS V12.08,2013-07-05 15:16:00,
2013-07-05 11:22:00,75.4,71.9,30.24,ENE,68,0.0,0.0,89,0.00,,CLR,2.75,VWS V12.08,2013-07-05 15:22:00,
2013-07-05 11:27:00,75.6,72.1,30.24,West,270,0.0,0.0,89,0.00,,CLR,2.75,VWS V12.08,2013-07-05 15:27:00,
2013-07-05 11:32:00,75.6,71.8,30.24,WNW,292,0.0,0.0,88,0.00,,CLR,2.75,VWS V12.08,2013-07-05 15:32:00,
2013-07-05 11:37:00,75.4,70.9,30.24,NE,45,0.0,0.0,86,0.00,,CLR,2.75,VWS V12.08,2013-07-05 15:37:00,
2013-07-05 11:42:00,75.4,70.9,30.24,NE,45,0.0,0.0,86,0.00,,CLR,2.75,VWS V12.08,2013-07-05 15:42:00,
2013-07-05 11:47:00,75.4,70.9,30.24,NE,45,0.0,0.0,86,0.00,,CLR,2.75,VWS V12.08,2013-07-05 15:47:00,
2013-07-05 11:50:00,75.4,70.9,30.25,NE,45,0.0,0.0,86,0.00,,CLR,2.75,VWS V12.08,2013-07-05 15:50:00,
2013-07-05 11:55:00,75.4,70.9,30.24,ENE,68,0.0,0.0,86,0.00,,CLR,2.75,VWS V12.08,2013-07-05 15:55:00,
2013-07-05 12:00:00,75.6,71.1,30.24,ENE,68,0.0,0.0,86,0.00,,CLR,2.75,VWS V12.08,2013-07-05 16:00:00,
2013-07-05 12:05:00,75.7,71.3,30.24,NNW,338,0.0,0.0,86,0.00,,CLR,2.75,VWS V12.08,2013-07-05 16:05:00,
2013-07-05 12:10:00,75.9,71.1,30.24,North,0,0.0,0.0,85,0.00,,CLR,2.75,VWS V12.08,2013-07-05 16:10:00,
2013-07-05 12:15:00,76.1,71.6,30.24,North,0,0.0,0.0,86,0.00,,CLR,2.75,VWS V12.08,2013-07-05 16:15:00,
2013-07-05 12:20:00,76.5,72.0,30.24,NNW,338,0.0,0.0,86,0.00,,CLR,2.75,VWS V12.08,2013-07-05 16:20:00,
2013-07-05 12:25:00,76.8,72.0,30.24,NNE,22,0.0,0.0,85,0.00,,CLR,2.75,VWS V12.08,2013-07-05 16:25:00,
2013-07-05 12:30:00,77.5,72.0,30.24,WSW,248,0.0,0.0,83,0.00,,CLR,2.75,VWS V12.08,2013-07-05 16:30:00,
2013-07-05 12:35:00,77.5,72.0,30.24,WSW,248,0.0,0.0,83,0.00,,CLR,2.75,VWS V12.08,2013-07-05 16:35:00,
2013-07-05 12:40:00,79.5,73.2,30.24,NNE,22,0.0,0.0,81,0.00,,CLR,2.75,VWS V12.08,2013-07-05 16:40:00,
2013-07-05 12:45:00,80.2,73.9,30.24,ENE,68,0.0,0.0,81,0.00,,CLR,2.75,VWS V12.08,2013-07-05 16:45:00,
2013-07-05 12:50:00,80.4,74.8,30.24,ENE,68,0.0,0.0,83,0.00,,CLR,2.75,VWS V12.08,2013-07-05 16:50:00,
2013-07-05 12:55:00,81.1,74.0,30.24,NE,45,0.0,0.0,79,0.00,,CLR,2.75,VWS V12.08,2013-07-05 16:55:00,
2013-07-05 13:00:00,81.5,74.7,30.24,ENE,68,0.0,0.0,80,0.00,,CLR,2.75,VWS V12.08,2013-07-05 17:00:00,
2013-07-05 13:05:00,81.5,73.6,30.23,NE,45,0.0,0.0,77,0.00,,CLR,2.75,VWS V12.08,2013-07-05 17:05:00,
2013-07-05 13:10:00,81.3,72.2,30.23,NNE,22,0.0,0.0,74,0.00,,CLR,2.75,VWS V12.08,2013-07-05 17:10:00,
2013-07-05 13:15:00,81.1,72.1,30.23,NE,45,0.0,0.0,74,0.00,,CLR,2.75,VWS V12.08,2013-07-05 17:15:00,
2013-07-05 13:20:00,80.8,72.1,30.23,NNE,22,0.0,0.0,75,0.00,,CLR,2.75,VWS V12.08,2013-07-05 17:20:00,
2013-07-05 13:25:00,80.8,72.1,30.22,NNW,338,0.0,0.0,75,0.00,,CLR,2.75,VWS V12.08,2013-07-05 17:25:00,
2013-07-05 13:30:00,79.5,71.3,30.23,NNW,338,0.0,0.0,76,0.00,,CLR,2.75,VWS V12.08,2013-07-05 17:30:00,
2013-07-05 13:35:00,78.6,70.8,30.23,WNW,292,0.0,0.0,77,0.00,,CLR,2.75,VWS V12.08,2013-07-05 17:35:00,
2013-07-05 13:37:00,78.4,70.6,30.22,WNW,292,0.0,0.0,77,0.00,,CLR,2.75,VWS V12.08,2013-07-05 17:37:00,
2013-07-05 13:42:00,77.9,70.5,30.23,NNW,338,0.0,0.0,78,0.00,,CLR,2.75,VWS V12.08,2013-07-05 17:42:00,
2013-07-05 13:47:00,77.2,70.5,30.23,East,90,0.0,0.0,80,0.02,,CLR,2.77,VWS V12.08,2013-07-05 17:47:00,
2013-07-05 13:52:00,77.2,70.5,30.23,East,90,0.0,0.0,80,0.02,,CLR,2.77,VWS V12.08,2013-07-05 17:52:00,
2013-07-05 13:57:00,76.6,70.7,30.23,East,90,0.0,0.0,82,0.02,,CLR,2.77,VWS V12.08,2013-07-05 17:57:00,
2013-07-05 14:02:00,77.0,72.2,30.23,East,90,0.0,0.0,85,0.02,,CLR,2.77,VWS V12.08,2013-07-05 18:02:00,
2013-07-05 14:07:00,77.7,73.2,30.22,East,90,0.0,0.0,86,0.02,,CLR,2.77,VWS V12.08,2013-07-05 18:07:00,
2013-07-05 14:12:00,78.6,74.1,30.22,East,90,0.0,0.0,86,0.02,,CLR,2.77,VWS V12.08,2013-07-05 18:12:00,
2013-07-05 14:17:00,78.6,74.1,30.22,ENE,68,0.0,0.0,86,0.02,,CLR,2.77,VWS V12.08,2013-07-05 18:17:00,
2013-07-05 14:18:00,78.6,74.1,30.22,ENE,68,0.0,0.0,86,0.02,,CLR,2.77,VWS V12.08,2013-07-05 18:18:00,
2013-07-05 14:23:00,79.5,74.3,30.22,West,270,0.0,0.0,84,0.02,,CLR,2.77,VWS V12.08,2013-07-05 18:23:00,
2013-07-05 14:24:00,79.5,74.3,30.22,West,270,0.0,0.0,84,0.02,,CLR,2.77,VWS V12.08,2013-07-05 18:24:00,
2013-07-05 14:29:00,79.5,74.3,30.21,West,270,0.0,0.0,84,0.02,,CLR,2.77,VWS V12.08,2013-07-05 18:29:00,
2013-07-05 14:34:00,81.0,73.8,30.21,ENE,68,0.0,0.0,79,0.02,,CLR,2.79,VWS V12.08,2013-07-05 18:34:00,
2013-07-05 14:39:00,81.1,74.4,30.21,ENE,68,0.0,0.0,80,0.04,,CLR,2.79,VWS V12.08,2013-07-05 18:39:00,
2013-07-05 14:44:00,81.5,74.4,30.20,ENE,68,0.0,0.0,79,0.02,,CLR,2.79,VWS V12.08,2013-07-05 18:44:00,
2013-07-05 14:50:00,81.7,74.2,30.20,ENE,68,0.0,0.0,78,0.02,,CLR,2.79,VWS V12.08,2013-07-05 18:50:00,
2013-07-05 14:51:00,81.7,74.2,30.20,ENE,68,0.0,0.0,78,0.02,,CLR,2.79,VWS V12.08,2013-07-05 18:51:00,
2013-07-05 14:56:00,82.2,74.3,30.20,ENE,68,0.0,0.0,77,0.02,,CLR,2.79,VWS V12.08,2013-07-05 18:56:00,
2013-07-05 15:01:00,82.4,73.7,30.21,ENE,68,0.0,0.0,75,0.02,,CLR,2.79,VWS V12.08,2013-07-05 19:01:00,
2013-07-05 15:06:00,82.2,73.1,30.20,ENE,68,0.0,0.0,74,0.02,,CLR,2.79,VWS V12.08,2013-07-05 19:06:00,
2013-07-05 15:11:00,81.1,72.1,30.20,NE,45,0.0,0.0,74,0.02,,CLR,2.79,VWS V12.08,2013-07-05 19:11:00,
2013-07-05 15:16:00,80.4,71.8,30.19,West,270,0.0,0.0,75,0.02,,CLR,2.79,VWS V12.08,2013-07-05 19:16:00,
2013-07-05 15:21:00,80.1,71.8,30.19,NW,315,0.0,0.0,76,0.02,,CLR,2.79,VWS V12.08,2013-07-05 19:21:00,
2013-07-05 15:26:00,79.3,71.1,30.20,West,270,0.0,0.0,76,0.02,,CLR,2.79,VWS V12.08,2013-07-05 19:26:00,
2013-07-05 15:31:00,79.2,71.7,30.20,West,270,0.0,0.0,78,0.00,,CLR,2.79,VWS V12.08,2013-07-05 19:31:00,
2013-07-05 15:36:00,79.0,71.5,30.20,NE,45,0.0,0.0,78,0.00,,CLR,2.79,VWS V12.08,2013-07-05 19:36:00,
2013-07-05 15:41:00,78.6,71.2,30.20,NE,45,0.0,0.0,78,0.00,,CLR,2.79,VWS V12.08,2013-07-05 19:41:00,
2013-07-05 15:46:00,78.6,71.2,30.20,ESE,112,0.0,0.0,78,0.00,,CLR,2.79,VWS V12.08,2013-07-05 19:46:00,
2013-07-05 15:51:00,78.6,71.2,30.20,ESE,112,0.0,0.0,78,0.00,,CLR,2.79,VWS V12.08,2013-07-05 19:51:00,
2013-07-05 15:54:00,79.0,71.5,30.20,ESE,112,0.0,0.0,78,0.00,,CLR,2.79,VWS V12.08,2013-07-05 19:54:00,
2013-07-05 15:59:00,79.0,71.5,30.19,ESE,112,0.0,0.0,78,0.00,,CLR,2.79,VWS V12.08,2013-07-05 19:59:00,
2013-07-05 16:04:00,80.8,74.0,30.19,ENE,68,0.0,0.0,80,0.00,,CLR,2.79,VWS V12.08,2013-07-05 20:04:00,
2013-07-05 16:09:00,81.1,74.0,30.19,ESE,112,0.0,0.0,79,0.00,,CLR,2.79,VWS V12.08,2013-07-05 20:09:00,
2013-07-05 16:14:00,81.7,73.4,30.19,ESE,112,0.0,0.0,76,0.00,,CLR,2.79,VWS V12.08,2013-07-05 20:14:00,
2013-07-05 16:19:00,82.0,73.3,30.19,ENE,68,0.0,0.0,75,0.00,,CLR,2.79,VWS V12.08,2013-07-05 20:19:00,
2013-07-05 16:24:00,82.2,73.5,30.19,ENE,68,0.0,0.0,75,0.00,,CLR,2.79,VWS V12.08,2013-07-05 20:24:00,
2013-07-05 16:29:00,82.2,73.5,30.19,ENE,68,0.0,0.0,75,0.00,,CLR,2.79,VWS V12.08,2013-07-05 20:29:00,
2013-07-05 16:34:00,81.3,72.2,30.20,ENE,68,0.0,0.0,74,0.00,,CLR,2.79,VWS V12.08,2013-07-05 20:34:00,
2013-07-05 16:39:00,80.6,71.6,30.21,SE,135,0.0,0.0,74,0.00,,CLR,2.79,VWS V12.08,2013-07-05 20:39:00,
2013-07-05 16:44:00,79.7,70.7,30.22,SE,135,0.0,0.9,74,0.00,,CLR,2.79,VWS V12.08,2013-07-05 20:44:00,
2013-07-05 16:49:00,77.7,68.8,30.22,East,90,0.0,0.9,74,0.00,,CLR,2.79,VWS V12.08,2013-07-05 20:49:00,
2013-07-05 16:50:00,77.7,68.8,30.22,East,90,0.0,0.9,74,0.00,,CLR,2.79,VWS V12.08,2013-07-05 20:50:00,
2013-07-05 16:55:00,75.7,67.6,30.21,ENE,68,0.0,0.9,76,0.02,,CLR,2.81,VWS V12.08,2013-07-05 20:55:00,
2013-07-05 17:00:00,74.8,67.2,30.20,ENE,68,0.0,0.9,77,0.04,,CLR,2.55,VWS V12.08,2013-07-05 21:00:00,
2013-07-05 17:05:00,74.1,66.8,30.20,ENE,68,0.0,0.0,78,0.04,,CLR,2.55,VWS V12.08,2013-07-05 21:05:00,
2013-07-05 17:10:00,73.2,66.7,30.20,ENE,68,0.0,0.0,80,0.04,,CLR,2.55,VWS V12.08,2013-07-05 21:10:00,
2013-07-05 17:15:00,72.9,66.7,30.20,ENE,68,0.0,0.0,81,0.04,,CLR,2.55,VWS V12.08,2013-07-05 21:15:00,
2013-07-05 17:17:00,72.9,66.7,30.20,ENE,68,0.0,0.0,81,0.04,,CLR,2.55,VWS V12.08,2013-07-05 21:17:00,
2013-07-05 17:22:00,72.3,66.5,30.21,North,0,0.0,0.0,82,0.04,,CLR,2.55,VWS V12.08,2013-07-05 21:22:00,
2013-07-05 17:27:00,72.3,66.9,30.21,ENE,68,0.0,0.0,83,0.06,,CLR,2.57,VWS V12.08,2013-07-05 21:27:00,
2013-07-05 17:32:00,72.1,66.7,30.21,NE,45,0.0,0.0,83,0.06,,CLR,2.57,VWS V12.08,2013-07-05 21:32:00,
2013-07-05 17:37:00,72.1,67.0,30.21,NE,45,0.0,0.0,84,0.06,,CLR,2.57,VWS V12.08,2013-07-05 21:37:00,
2013-07-05 17:42:00,72.1,67.0,30.22,NE,45,0.0,0.0,84,0.06,,CLR,2.57,VWS V12.08,2013-07-05 21:42:00,
2013-07-05 17:47:00,72.3,67.2,30.22,NW,315,0.0,0.0,84,0.06,,CLR,2.57,VWS V12.08,2013-07-05 21:47:00,
2013-07-05 17:52:00,72.5,67.4,30.22,NNW,338,0.0,0.0,84,0.04,,CLR,2.57,VWS V12.08,2013-07-05 21:52:00,
2013-07-05 17:57:00,72.5,67.4,30.22,ENE,68,0.0,0.0,84,0.02,,CLR,2.57,VWS V12.08,2013-07-05 21:57:00,
2013-07-05 18:02:00,72.7,67.9,30.22,ENE,68,0.0,0.0,85,0.02,,CLR,2.55,VWS V12.08,2013-07-05 22:02:00,
2013-07-05 18:07:00,72.7,67.9,30.22,ENE,68,0.0,0.0,85,0.02,,CLR,2.55,VWS V12.08,2013-07-05 22:07:00,
2013-07-05 18:09:00,72.5,67.7,30.22,ENE,68,0.0,0.0,85,0.02,,CLR,2.55,VWS V12.08,2013-07-05 22:09:00,
2013-07-05 18:14:00,72.5,67.7,30.22,ENE,68,0.0,0.0,85,0.02,,CLR,2.55,VWS V12.08,2013-07-05 22:14:00,
2013-07-05 18:19:00,72.3,67.6,30.22,ENE,68,0.0,0.0,85,0.04,,CLR,2.57,VWS V12.08,2013-07-05 22:19:00,
2013-07-05 18:24:00,72.3,67.6,30.21,ENE,68,0.0,0.0,85,0.02,,CLR,2.57,VWS V12.08,2013-07-05 22:24:00,
2013-07-05 18:29:00,72.1,67.7,30.21,ENE,68,0.0,0.0,86,0.02,,CLR,2.57,VWS V12.08,2013-07-05 22:29:00,
2013-07-05 18:34:00,72.1,67.7,30.21,ENE,68,0.0,0.0,86,0.02,,CLR,2.57,VWS V12.08,2013-07-05 22:34:00,
2013-07-05 18:39:00,72.1,67.7,30.21,ENE,68,0.0,0.0,86,0.02,,CLR,2.57,VWS V12.08,2013-07-05 22:39:00,
2013-07-05 18:41:00,72.0,67.6,30.21,NNW,338,0.0,0.0,86,0.02,,CLR,2.57,VWS V12.08,2013-07-05 22:41:00,
2013-07-05 18:46:00,72.1,67.7,30.21,NW,315,0.0,0.0,86,0.02,,CLR,2.57,VWS V12.08,2013-07-05 22:46:00,
2013-07-05 18:51:00,72.1,67.7,30.22,NW,315,0.0,0.0,86,0.02,,CLR,2.57,VWS V12.08,2013-07-05 22:51:00,
2013-07-05 18:56:00,72.0,67.6,30.22,NW,315,0.0,0.0,86,0.02,,CLR,2.57,VWS V12.08,2013-07-05 22:56:00,
2013-07-05 19:01:00,72.0,67.6,30.22,NW,315,0.0,0.0,86,0.02,,CLR,2.57,VWS V12.08,2013-07-05 23:01:00,
2013-07-05 19:06:00,71.8,67.4,30.22,WNW,292,0.0,0.0,86,0.02,,CLR,2.57,VWS V12.08,2013-07-05 23:06:00,
2013-07-05 19:11:00,71.8,67.4,30.22,WNW,292,0.0,0.0,86,0.02,,CLR,2.57,VWS V12.08,2013-07-05 23:11:00,
2013-07-05 19:16:00,71.8,67.4,30.22,WNW,292,0.0,0.0,86,0.02,,CLR,2.57,VWS V12.08,2013-07-05 23:16:00,
2013-07-05 19:18:00,71.8,67.4,30.22,WNW,292,0.0,0.0,86,0.00,,CLR,2.57,VWS V12.08,2013-07-05 23:18:00,
2013-07-05 19:23:00,71.4,67.0,30.22,WNW,292,0.0,0.0,86,0.00,,CLR,2.57,VWS V12.08,2013-07-05 23:23:00,
2013-07-05 19:28:00,71.2,66.8,30.22,WNW,292,0.0,0.0,86,0.00,,CLR,2.57,VWS V12.08,2013-07-05 23:28:00,
2013-07-05 19:33:00,71.4,67.0,30.22,WNW,292,0.0,0.0,86,0.00,,CLR,2.57,VWS V12.08,2013-07-05 23:33:00,
2013-07-05 19:38:00,71.4,67.0,30.22,WNW,292,0.0,0.0,86,0.00,,CLR,2.57,VWS V12.08,2013-07-05 23:38:00,
2013-07-05 19:39:00,71.4,67.0,30.22,WNW,292,0.0,0.0,86,0.00,,CLR,2.57,VWS V12.08,2013-07-05 23:39:00,
2013-07-05 19:44:00,71.4,67.0,30.22,WNW,292,0.0,0.0,86,0.00,,CLR,2.57,VWS V12.08,2013-07-05 23:44:00,
2013-07-05 19:49:00,71.8,67.4,30.22,WNW,292,0.0,0.0,86,0.00,,CLR,2.57,VWS V12.08,2013-07-05 23:49:00,
2013-07-05 19:54:00,71.8,67.4,30.22,WNW,292,0.0,0.0,86,0.00,,CLR,2.57,VWS V12.08,2013-07-05 23:54:00,
2013-07-05 19:59:00,71.8,67.4,30.22,WNW,292,0.0,0.0,86,0.00,,CLR,2.57,VWS V12.08,2013-07-05 23:59:00,
2013-07-05 20:04:00,71.4,67.0,30.22,ENE,68,0.0,0.0,86,0.00,,CLR,2.53,VWS V12.08,2013-07-06 00:04:00,
2013-07-05 20:09:00,71.4,67.0,30.22,ENE,68,0.0,0.0,86,0.00,,CLR,2.53,VWS V12.08,2013-07-06 00:09:00,
2013-07-05 20:14:00,71.4,67.0,30.21,ENE,68,0.0,0.0,86,0.00,,CLR,2.53,VWS V12.08,2013-07-06 00:14:00,
2013-07-05 20:15:00,71.4,67.0,30.21,ENE,68,0.0,0.0,86,0.00,,CLR,2.53,VWS V12.08,2013-07-06 00:15:00,
2013-07-05 20:20:00,71.2,66.8,30.22,ENE,68,0.0,0.0,86,0.00,,CLR,2.53,VWS V12.08,2013-07-06 00:20:00,
2013-07-05 20:25:00,71.2,66.8,30.21,ESE,112,0.0,0.0,86,0.00,,CLR,2.53,VWS V12.08,2013-07-06 00:25:00,
2013-07-05 20:30:00,71.2,66.8,30.21,ESE,112,0.0,0.0,86,0.00,,CLR,2.53,VWS V12.08,2013-07-06 00:30:00,
2013-07-05 20:35:00,70.9,66.8,30.21,ESE,112,0.0,0.0,87,0.00,,CLR,2.53,VWS V12.08,2013-07-06 00:35:00,
2013-07-05 20:40:00,70.7,66.7,30.21,ESE,112,0.0,0.0,87,0.00,,CLR,2.53,VWS V12.08,2013-07-06 00:40:00,
2013-07-05 20:45:00,70.5,66.5,30.21,ESE,112,0.0,0.0,87,0.00,,CLR,2.53,VWS V12.08,2013-07-06 00:45:00,
2013-07-05 20:50:00,70.5,66.5,30.21,ESE,112,0.0,0.0,87,0.00,,CLR,2.53,VWS V12.08,2013-07-06 00:50:00,
2013-07-05 20:55:00,70.2,65.8,30.21,ESE,112,0.0,0.0,86,0.00,,CLR,2.53,VWS V12.08,2013-07-06 00:55:00,
2013-07-05 21:00:00,70.2,65.8,30.21,ESE,112,0.0,0.0,86,0.00,,CLR,2.31,VWS V12.08,2013-07-06 01:00:00,
2013-07-05 21:05:00,70.0,65.6,30.22,ESE,112,0.0,0.0,86,0.00,,CLR,2.31,VWS V12.08,2013-07-06 01:05:00,
2013-07-05 21:10:00,70.0,65.6,30.22,ESE,112,0.0,0.0,86,0.00,,CLR,2.31,VWS V12.08,2013-07-06 01:10:00,
2013-07-05 21:15:00,69.8,65.8,30.22,ESE,112,0.0,0.0,87,0.00,,CLR,2.31,VWS V12.08,2013-07-06 01:15:00,
2013-07-05 21:20:00,69.8,65.8,30.22,ESE,112,0.0,0.0,87,0.00,,CLR,2.31,VWS V12.08,2013-07-06 01:20:00,
2013-07-05 21:25:00,69.6,65.6,30.22,East,90,0.0,0.0,87,0.00,,CLR,2.31,VWS V12.08,2013-07-06 01:25:00,
2013-07-05 21:30:00,69.4,65.4,30.22,East,90,0.0,0.0,87,0.00,,CLR,2.31,VWS V12.08,2013-07-06 01:30:00,
2013-07-05 21:35:00,69.4,65.4,30.23,East,90,0.0,0.0,87,0.00,,CLR,2.31,VWS V12.08,2013-07-06 01:35:00,
2013-07-05 21:40:00,69.4,65.4,30.23,East,90,0.0,0.0,87,0.00,,CLR,2.31,VWS V12.08,2013-07-06 01:40:00,
2013-07-05 21:45:00,69.3,65.6,30.23,East,90,0.0,0.0,88,0.00,,CLR,2.31,VWS V12.08,2013-07-06 01:45:00,
2013-07-05 21:50:00,69.1,65.1,30.23,East,90,0.0,0.0,87,0.00,,CLR,2.31,VWS V12.08,2013-07-06 01:50:00,
2013-07-05 21:55:00,68.9,64.9,30.23,East,90,0.0,0.0,87,0.00,,CLR,2.31,VWS V12.08,2013-07-06 01:55:00,
2013-07-05 22:00:00,68.9,64.9,30.23,East,90,0.0,0.0,87,0.00,,CLR,2.31,VWS V12.08,2013-07-06 02:00:00,
2013-07-05 22:05:00,68.9,64.9,30.23,East,90,0.0,0.0,87,0.00,,CLR,2.29,VWS V12.08,2013-07-06 02:05:00,
2013-07-05 22:10:00,68.7,64.7,30.23,East,90,0.0,0.0,87,0.00,,CLR,2.29,VWS V12.08,2013-07-06 02:10:00,
2013-07-05 22:15:00,68.7,64.7,30.23,East,90,0.0,0.0,87,0.00,,CLR,2.29,VWS V12.08,2013-07-06 02:15:00,
2013-07-05 22:20:00,68.7,65.0,30.24,East,90,0.0,0.0,88,0.00,,CLR,2.29,VWS V12.08,2013-07-06 02:20:00,
2013-07-05 22:25:00,68.5,64.8,30.24,East,90,0.0,0.0,88,0.00,,CLR,2.29,VWS V12.08,2013-07-06 02:25:00,
2013-07-05 22:30:00,68.5,64.8,30.24,East,90,0.0,0.0,88,0.00,,CLR,2.29,VWS V12.08,2013-07-06 02:30:00,
2013-07-05 22:36:00,68.5,64.8,30.24,East,90,0.0,0.0,88,0.00,,CLR,2.29,VWS V12.08,2013-07-06 02:36:00,
2013-07-05 22:41:00,68.5,64.8,30.24,East,90,0.0,0.0,88,0.00,,CLR,2.29,VWS V12.08,2013-07-06 02:41:00,
2013-07-05 22:46:00,68.4,64.7,30.24,East,90,0.0,0.0,88,0.00,,CLR,2.29,VWS V12.08,2013-07-06 02:46:00,
2013-07-05 22:51:00,68.4,64.7,30.24,East,90,0.0,0.0,88,0.00,,CLR,2.29,VWS V12.08,2013-07-06 02:51:00,
2013-07-05 22:56:00,68.4,64.7,30.24,East,90,0.0,0.0,88,0.00,,CLR,2.29,VWS V12.08,2013-07-06 02:56:00,
2013-07-05 23:01:00,68.4,64.7,30.23,East,90,0.0,0.0,88,0.00,,CLR,2.03,VWS V12.08,2013-07-06 03:01:00,
2013-07-05 23:06:00,68.4,64.7,30.23,East,90,0.0,0.0,88,0.00,,CLR,2.03,VWS V12.08,2013-07-06 03:06:00,
2013-07-05 23:11:00,68.2,64.5,30.23,East,90,0.0,0.0,88,0.00,,CLR,2.03,VWS V12.08,2013-07-06 03:11:00,
2013-07-05 23:16:00,68.2,64.5,30.23,East,90,0.0,0.0,88,0.00,,CLR,2.03,VWS V12.08,2013-07-06 03:16:00,
2013-07-05 23:21:00,68.0,64.3,30.23,East,90,0.0,0.0,88,0.00,,CLR,2.03,VWS V12.08,2013-07-06 03:21:00,
2013-07-05 23:26:00,68.0,64.3,30.23,East,90,0.0,0.0,88,0.00,,CLR,2.03,VWS V12.08,2013-07-06 03:26:00,
2013-07-05 23:31:00,67.8,64.1,30.22,East,90,0.0,0.0,88,0.00,,CLR,2.03,VWS V12.08,2013-07-06 03:31:00,
2013-07-05 23:36:00,67.8,64.1,30.22,East,90,0.0,0.0,88,0.00,,CLR,2.03,VWS V12.08,2013-07-06 03:36:00,
2013-07-05 23:41:00,67.8,64.1,30.22,East,90,0.0,0.0,88,0.00,,CLR,2.03,VWS V12.08,2013-07-06 03:41:00,
2013-07-05 23:46:00,67.8,64.1,30.22,East,90,0.0,0.0,88,0.00,,CLR,2.03,VWS V12.08,2013-07-06 03:46:00,
2013-07-05 23:51:00,67.8,64.1,30.23,East,90,0.0,0.0,88,0.00,,CLR,2.03,VWS V12.08,2013-07-06 03:51:00,
2013-07-05 23:56:00,67.8,64.1,30.22,East,90,0.0,0.0,88,0.00,,CLR,2.03,VWS V12.08,2013-07-06 03:56:00,